sensor_id;sensor_type;location;lat;lon;timestamp;pressure;altitude;pressure_sealevel;temperature;humidity
61880;BME280;47817;52.798;27.544;2023-01-30T00:01:29;1017.8;;;1.2;80.8
61880;BME280;47817;52.798;27.544;2023-01-30T00:06:51;1017.7;;;1.2;81
61880;BME280;47817;52.798;27.544;2023-01-30T00:11:31;1017.7;;;1.2;81.3
61880;BME280;47817;52.798;27.544;2023-01-30T00:16:49;1017.7;;;1.2;81.4
61880;BME280;47817;52.798;27.544;2023-01-30T00:21:27;1017.7;;;1.2;81.4
61880;BME280;47817;52.798;27.544;2023-01-30T00:26:49;1017.6;;;1.2;81.5
61880;BME280;47817;52.798;27.544;2023-01-30T00:31:17;1017.6;;;1.2;81.8
61880;BME280;47817;52.798;27.544;2023-01-30T00:36:37;1017.6;;;1.2;82.1
61880;BME280;47817;52.798;27.544;2023-01-30T00:41:07;1017.5;;;1.2;82.3
61880;BME280;47817;52.798;27.544;2023-01-30T00:46:51;1017.4;;;1.1;82.7
61880;BME280;47817;52.798;27.544;2023-01-30T00:51:17;1017.4;;;1.1;82.7
61880;BME280;47817;52.798;27.544;2023-01-30T00:56:47;1017.3;;;1.1;83.2
61880;BME280;47817;52.798;27.544;2023-01-30T01:01:47;1017.2;;;1.1;83.6
61880;BME280;47817;52.798;27.544;2023-01-30T01:06:35;1017;;;1.1;83.8
61880;BME280;47817;52.798;27.544;2023-01-30T01:11:37;1016.9;;;1.1;83.7
61880;BME280;47817;52.798;27.544;2023-01-30T01:16:17;1016.8;;;1.1;83.9
61880;BME280;47817;52.798;27.544;2023-01-30T01:21:07;1016.7;;;1.1;84.1
61880;BME280;47817;52.798;27.544;2023-01-30T01:26:17;1016.6;;;1.1;84.1
61880;BME280;47817;52.798;27.544;2023-01-30T01:31:33;1016.5;;;1.1;84.3
61880;BME280;47817;52.798;27.544;2023-01-30T01:36:07;1016.4;;;1.1;84.4
61880;BME280;47817;52.798;27.544;2023-01-30T01:41:27;1016.3;;;1.2;84.3
61880;BME280;47817;52.798;27.544;2023-01-30T01:46:26;1016.3;;;1.2;84.1
61880;BME280;47817;52.798;27.544;2023-01-30T01:51:50;1016.2;;;1.3;83.9
61880;BME280;47817;52.798;27.544;2023-01-30T01:56:36;1016.1;;;1.3;84
61880;BME280;47817;52.798;27.544;2023-01-30T02:01:35;1016.2;;;1.3;84
61880;BME280;47817;52.798;27.544;2023-01-30T02:06:47;1016.1;;;1.3;83.8
61880;BME280;47817;52.798;27.544;2023-01-30T02:11:18;1016;;;1.3;83.7
61880;BME280;47817;52.798;27.544;2023-01-30T02:16:39;1015.9;;;1.3;83.6
61880;BME280;47817;52.798;27.544;2023-01-30T02:21:18;1015.7;;;1.3;83.6
61880;BME280;47817;52.798;27.544;2023-01-30T02:26:22;1015.6;;;1.3;83.6
61880;BME280;47817;52.798;27.544;2023-01-30T02:31:20;1015.5;;;1.3;83.7
61880;BME280;47817;52.798;27.544;2023-01-30T02:36:53;1015.5;;;1.3;83.6
61880;BME280;47817;52.798;27.544;2023-01-30T02:41:39;1015.4;;;1.3;83.7
61880;BME280;47817;52.798;27.544;2023-01-30T02:46:42;1015.3;;;1.4;83.5
61880;BME280;47817;52.798;27.544;2023-01-30T02:51:37;1015.1;;;1.4;83.4
61880;BME280;47817;52.798;27.544;2023-01-30T02:56:52;1015;;;1.3;83.4
61880;BME280;47817;52.798;27.544;2023-01-30T03:01:20;1015;;;1.2;83.9
61880;BME280;47817;52.798;27.544;2023-01-30T03:06:18;1015;;;1.2;84.1
61880;BME280;47817;52.798;27.544;2023-01-30T03:11:51;1014.9;;;1.2;84.1
61880;BME280;47817;52.798;27.544;2023-01-30T03:16:07;1014.9;;;1.2;84.2
61880;BME280;47817;52.798;27.544;2023-01-30T03:21:41;1014.7;;;1.2;84.3
61880;BME280;47817;52.798;27.544;2023-01-30T03:26:51;1014.6;;;1.2;84.3
61880;BME280;47817;52.798;27.544;2023-01-30T03:31:49;1014.5;;;1.2;84.3
61880;BME280;47817;52.798;27.544;2023-01-30T03:36:07;1014.5;;;1.3;84.2
61880;BME280;47817;52.798;27.544;2023-01-30T03:41:51;1014.4;;;1.3;84.2
61880;BME280;47817;52.798;27.544;2023-01-30T03:46:37;1014.3;;;1.3;84.2
61880;BME280;47817;52.798;27.544;2023-01-30T03:51:41;1014.3;;;1.2;84.3
61880;BME280;47817;52.798;27.544;2023-01-30T03:56:27;1014.1;;;1.2;84.3
61880;BME280;47817;52.798;27.544;2023-01-30T04:01:19;1014;;;1.1;84.8
61880;BME280;47817;52.798;27.544;2023-01-30T04:06:51;1013.9;;;1.2;84.6
61880;BME280;47817;52.798;27.544;2023-01-30T04:11:07;1013.7;;;1.3;84.5
61880;BME280;47817;52.798;27.544;2023-01-30T04:16:41;1013.6;;;1.3;84.3
61880;BME280;47817;52.798;27.544;2023-01-30T04:21:51;1013.5;;;1.3;84.3
61880;BME280;47817;52.798;27.544;2023-01-30T04:26:51;1013.4;;;1.2;84.5
61880;BME280;47817;52.798;27.544;2023-01-30T04:31:19;1013.4;;;1.2;84.3
61880;BME280;47817;52.798;27.544;2023-01-30T04:36:49;1013.3;;;1.2;84.4
61880;BME280;47817;52.798;27.544;2023-01-30T04:41:27;1013.3;;;1.2;84.6
61880;BME280;47817;52.798;27.544;2023-01-30T04:46:19;1013.1;;;1.2;84.6
61880;BME280;47817;52.798;27.544;2023-01-30T04:51:27;1013.1;;;1.2;84.5
61880;BME280;47817;52.798;27.544;2023-01-30T04:56:17;1013;;;1.2;84.6
61880;BME280;47817;52.798;27.544;2023-01-30T05:01:29;1012.9;;;1.2;84.4
61880;BME280;47817;52.798;27.544;2023-01-30T05:06:13;1012.8;;;1.2;84.5
61880;BME280;47817;52.798;27.544;2023-01-30T05:11:07;1012.6;;;1.2;84.6
61880;BME280;47817;52.798;27.544;2023-01-30T05:16:51;1012.6;;;1.2;84.6
61880;BME280;47817;52.798;27.544;2023-01-30T05:21:29;1012.6;;;1.2;84.7
61880;BME280;47817;52.798;27.544;2023-01-30T05:26:31;1012.7;;;1.3;84.7
61880;BME280;47817;52.798;27.544;2023-01-30T05:31:49;1012.6;;;1.2;84.8
61880;BME280;47817;52.798;27.544;2023-01-30T05:36:37;1012.6;;;1.2;85.1
61880;BME280;47817;52.798;27.544;2023-01-30T05:41:19;1012.5;;;1.1;85.5
61880;BME280;47817;52.798;27.544;2023-01-30T05:46:29;1012.4;;;1.1;85.9
61880;BME280;47817;52.798;27.544;2023-01-30T05:51:13;1012.3;;;1.1;86
61880;BME280;47817;52.798;27.544;2023-01-30T05:56:41;1012.2;;;1.1;86
61880;BME280;47817;52.798;27.544;2023-01-30T06:01:49;1012.2;;;1.1;85.9
61880;BME280;47817;52.798;27.544;2023-01-30T06:06:31;1012.1;;;1.1;86
61880;BME280;47817;52.798;27.544;2023-01-30T06:11:47;1012.1;;;1.1;86
61880;BME280;47817;52.798;27.544;2023-01-30T06:16:07;1012;;;1.1;85.9
61880;BME280;47817;52.798;27.544;2023-01-30T06:21:51;1011.9;;;1.1;85.9
61880;BME280;47817;52.798;27.544;2023-01-30T06:26:17;1011.9;;;1.2;85.9
61880;BME280;47817;52.798;27.544;2023-01-30T06:31:35;1011.8;;;1.2;85.8
61880;BME280;47817;52.798;27.544;2023-01-30T06:36:07;1011.8;;;1.2;85.8
61880;BME280;47817;52.798;27.544;2023-01-30T06:41:51;1011.7;;;1.2;85.8
61880;BME280;47817;52.798;27.544;2023-01-30T06:46:07;1011.6;;;1.2;85.9
61880;BME280;47817;52.798;27.544;2023-01-30T06:51:55;1011.5;;;1.2;85.8
61880;BME280;47817;52.798;27.544;2023-01-30T06:56:55;1011.4;;;1.2;85.7
61880;BME280;47817;52.798;27.544;2023-01-30T07:01:39;1011.3;;;1.3;85.5
61880;BME280;47817;52.798;27.544;2023-01-30T07:06:37;1011.3;;;1.4;85.1
61880;BME280;47817;52.798;27.544;2023-01-30T07:11:07;1011.2;;;1.4;85
61880;BME280;47817;52.798;27.544;2023-01-30T07:16:39;1011.1;;;1.5;84.7
61880;BME280;47817;52.798;27.544;2023-01-30T07:21:19;1011;;;1.5;84.7
61880;BME280;47817;52.798;27.544;2023-01-30T07:26:07;1010.9;;;1.5;84.8
61880;BME280;47817;52.798;27.544;2023-01-30T07:31:17;1010.8;;;1.6;84.9
61880;BME280;47817;52.798;27.544;2023-01-30T07:36:37;1010.7;;;1.5;84.9
61880;BME280;47817;52.798;27.544;2023-01-30T07:41:27;1010.5;;;1.6;85
61880;BME280;47817;52.798;27.544;2023-01-30T07:46:39;1010.4;;;1.6;85.2
61880;BME280;47817;52.798;27.544;2023-01-30T07:51:55;1010.3;;;1.6;85.2
61880;BME280;47817;52.798;27.544;2023-01-30T07:56:39;1010.2;;;1.6;85
61880;BME280;47817;52.798;27.544;2023-01-30T08:01:39;1010.2;;;1.6;85.1
61880;BME280;47817;52.798;27.544;2023-01-30T08:06:33;1010.1;;;1.6;85
61880;BME280;47817;52.798;27.544;2023-01-30T08:11:43;1010;;;1.7;84.8
61880;BME280;47817;52.798;27.544;2023-01-30T08:16:19;1009.9;;;1.7;84.5
61880;BME280;47817;52.798;27.544;2023-01-30T08:21:19;1009.8;;;1.7;84.1
61880;BME280;47817;52.798;27.544;2023-01-30T08:26:19;1009.8;;;1.7;83.6
61880;BME280;47817;52.798;27.544;2023-01-30T08:31:37;1009.7;;;1.6;83.4
61880;BME280;47817;52.798;27.544;2023-01-30T08:36:27;1009.5;;;1.6;83
61880;BME280;47817;52.798;27.544;2023-01-30T08:41:51;1009.4;;;1.7;82.6
61880;BME280;47817;52.798;27.544;2023-01-30T08:46:39;1009.4;;;1.8;82.2
61880;BME280;47817;52.798;27.544;2023-01-30T08:51:39;1009.3;;;1.7;82
61880;BME280;47817;52.798;27.544;2023-01-30T08:56:51;1009.3;;;1.7;82
61880;BME280;47817;52.798;27.544;2023-01-30T09:01:15;1009.1;;;1.7;81.8
61880;BME280;47817;52.798;27.544;2023-01-30T09:06:39;1009.1;;;1.7;81.8
61880;BME280;47817;52.798;27.544;2023-01-30T09:11:17;1009.2;;;1.7;81.8
61880;BME280;47817;52.798;27.544;2023-01-30T09:16:29;1009.1;;;1.6;82
61880;BME280;47817;52.798;27.544;2023-01-30T09:21:07;1008.9;;;1.6;82.1
61880;BME280;47817;52.798;27.544;2023-01-30T09:26:53;1008.8;;;1.7;82
61880;BME280;47817;52.798;27.544;2023-01-30T09:31:07;1008.7;;;1.7;82
61880;BME280;47817;52.798;27.544;2023-01-30T09:36:43;1008.6;;;1.7;82
61880;BME280;47817;52.798;27.544;2023-01-30T09:41:23;1008.5;;;1.7;82
61880;BME280;47817;52.798;27.544;2023-01-30T09:46:54;1008.3;;;1.6;82.1
61880;BME280;47817;52.798;27.544;2023-01-30T09:51:51;1008.2;;;1.6;82.2
61880;BME280;47817;52.798;27.544;2023-01-30T09:56:07;1008.2;;;1.6;82.3
61880;BME280;47817;52.798;27.544;2023-01-30T10:01:53;1008;;;1.7;82.4
61880;BME280;47817;52.798;27.544;2023-01-30T10:06:27;1007.8;;;1.8;82.2
61880;BME280;47817;52.798;27.544;2023-01-30T10:11:45;1007.6;;;1.8;82.3
61880;BME280;47817;52.798;27.544;2023-01-30T10:16:54;1007.5;;;1.8;82.8
61880;BME280;47817;52.798;27.544;2023-01-30T10:21:56;1007.4;;;1.8;83.2
61880;BME280;47817;52.798;27.544;2023-01-30T10:26:08;1007.4;;;1.9;83.3
61880;BME280;47817;52.798;27.544;2023-01-30T10:31:50;1007.3;;;2;83.5
61880;BME280;47817;52.798;27.544;2023-01-30T10:36:31;1007;;;2;84.2
61880;BME280;47817;52.798;27.544;2023-01-30T10:41:10;1007;;;2;84.8
61880;BME280;47817;52.798;27.544;2023-01-30T10:46:35;1006.9;;;1.9;85.4
61880;BME280;47817;52.798;27.544;2023-01-30T10:51:19;1006.8;;;1.9;85.8
61880;BME280;47817;52.798;27.544;2023-01-30T10:56:32;1006.7;;;1.8;86.2
61880;BME280;47817;52.798;27.544;2023-01-30T11:01:09;1006.6;;;1.7;86.9
61880;BME280;47817;52.798;27.544;2023-01-30T11:06:29;1006.5;;;1.7;87.5
61880;BME280;47817;52.798;27.544;2023-01-30T11:11:53;1006.3;;;1.7;87.8
61880;BME280;47817;52.798;27.544;2023-01-30T11:16:32;1006.2;;;1.9;87.4
61880;BME280;47817;52.798;27.544;2023-01-30T11:21:18;1006.2;;;1.9;87.5
61880;BME280;47817;52.798;27.544;2023-01-30T11:26:53;1006;;;2;87.6
61880;BME280;47817;52.798;27.544;2023-01-30T11:31:38;1006;;;2;87.1
61880;BME280;47817;52.798;27.544;2023-01-30T11:36:26;1005.9;;;2;87.5
61880;BME280;47817;52.798;27.544;2023-01-30T11:41:18;1005.9;;;2.1;87.6
61880;BME280;47817;52.798;27.544;2023-01-30T11:46:17;1005.9;;;2.1;87.3
61880;BME280;47817;52.798;27.544;2023-01-30T11:51:30;1005.7;;;2.2;87.3
61880;BME280;47817;52.798;27.544;2023-01-30T11:56:20;1005.6;;;2.2;86.7
61880;BME280;47817;52.798;27.544;2023-01-30T12:01:32;1005.5;;;2.2;86.9
61880;BME280;47817;52.798;27.544;2023-01-30T12:06:59;1005.3;;;2.2;87
61880;BME280;47817;52.798;27.544;2023-01-30T12:11:41;1005.2;;;2.2;87.2
61880;BME280;47817;52.798;27.544;2023-01-30T12:16:13;1005.2;;;2.1;87.3
61880;BME280;47817;52.798;27.544;2023-01-30T12:21:54;1005.1;;;2;87.5
61880;BME280;47817;52.798;27.544;2023-01-30T12:26:17;1005.1;;;1.9;87.7
61880;BME280;47817;52.798;27.544;2023-01-30T12:31:28;1005.1;;;1.9;87.7
61880;BME280;47817;52.798;27.544;2023-01-30T12:36:34;1005.2;;;1.9;87.9
61880;BME280;47817;52.798;27.544;2023-01-30T12:41:27;1005.2;;;1.9;87.8
61880;BME280;47817;52.798;27.544;2023-01-30T12:46:40;1005.3;;;1.8;88.1
61880;BME280;47817;52.798;27.544;2023-01-30T12:51:49;1005.2;;;1.8;88.6
61880;BME280;47817;52.798;27.544;2023-01-30T12:56:36;1005.2;;;1.8;89.2
61880;BME280;47817;52.798;27.544;2023-01-30T13:01:56;1005.1;;;1.8;89.7
61880;BME280;47817;52.798;27.544;2023-01-30T13:06:37;1005;;;1.8;89.9
61880;BME280;47817;52.798;27.544;2023-01-30T13:11:56;1005;;;1.9;90.2
61880;BME280;47817;52.798;27.544;2023-01-30T13:16:47;1004.9;;;1.9;90.2
61880;BME280;47817;52.798;27.544;2023-01-30T13:21:30;1004.9;;;1.9;90
61880;BME280;47817;52.798;27.544;2023-01-30T13:26:35;1004.8;;;1.9;90.2
61880;BME280;47817;52.798;27.544;2023-01-30T13:31:52;1004.7;;;1.8;90.2
61880;BME280;47817;52.798;27.544;2023-01-30T13:36:17;1004.7;;;1.8;90.3
61880;BME280;47817;52.798;27.544;2023-01-30T13:41:55;1004.7;;;1.8;90.5
61880;BME280;47817;52.798;27.544;2023-01-30T13:46:10;1004.7;;;1.8;90.8
61880;BME280;47817;52.798;27.544;2023-01-30T13:51:45;1004.7;;;1.8;91.2
61880;BME280;47817;52.798;27.544;2023-01-30T13:56:30;1004.6;;;1.8;91.3
61880;BME280;47817;52.798;27.544;2023-01-30T14:01:19;1004.6;;;1.8;91.1
61880;BME280;47817;52.798;27.544;2023-01-30T14:06:41;1004.6;;;1.8;90.8
61880;BME280;47817;52.798;27.544;2023-01-30T14:11:31;1004.6;;;1.6;90.8
61880;BME280;47817;52.798;27.544;2023-01-30T14:16:17;1004.7;;;1.5;90.9
61880;BME280;47817;52.798;27.544;2023-01-30T14:21:11;1004.6;;;1.5;91.2
61880;BME280;47817;52.798;27.544;2023-01-30T14:27:45;1004.6;;;1.4;91.3
61880;BME280;47817;52.798;27.544;2023-01-30T14:36:51;1004.6;;;1.4;92
61880;BME280;47817;52.798;27.544;2023-01-30T14:42:09;1004.6;;;1.3;92.1
61880;BME280;47817;52.798;27.544;2023-01-30T14:46:44;1004.5;;;1.3;92
61880;BME280;47817;52.798;27.544;2023-01-30T14:51:53;1004.4;;;1.3;91.9
61880;BME280;47817;52.798;27.544;2023-01-30T14:57:14;1004.4;;;1.3;92.3
61880;BME280;47817;52.798;27.544;2023-01-30T15:01:52;1004.3;;;1.2;92.2
61880;BME280;47817;52.798;27.544;2023-01-30T15:06:33;1004.4;;;1.2;92.3
61880;BME280;47817;52.798;27.544;2023-01-30T15:11:43;1004.4;;;1.1;92
61880;BME280;47817;52.798;27.544;2023-01-30T15:16:50;1004.5;;;1.1;92.1
61880;BME280;47817;52.798;27.544;2023-01-30T15:21:58;1004.5;;;1.1;92.3
61880;BME280;47817;52.798;27.544;2023-01-30T15:26:23;1004.5;;;1.1;91.9
61880;BME280;47817;52.798;27.544;2023-01-30T15:31:19;1004.5;;;1;91.6
61880;BME280;47817;52.798;27.544;2023-01-30T15:36:53;1004.5;;;1;91.7
61880;BME280;47817;52.798;27.544;2023-01-30T15:41:19;1004.6;;;1;91.3
61880;BME280;47817;52.798;27.544;2023-01-30T15:46:44;1004.6;;;1;91.2
61880;BME280;47817;52.798;27.544;2023-01-30T15:51:53;1004.7;;;1;91
61880;BME280;47817;52.798;27.544;2023-01-30T15:56:53;1004.8;;;1.1;90.8
61880;BME280;47817;52.798;27.544;2023-01-30T16:01:07;1004.7;;;1.1;90.6
61880;BME280;47817;52.798;27.544;2023-01-30T16:06:53;1004.8;;;1;90.2
61880;BME280;47817;52.798;27.544;2023-01-30T16:11:08;1004.7;;;1.1;90
61880;BME280;47817;52.798;27.544;2023-01-30T16:16:07;1004.8;;;1.1;89.8
61880;BME280;47817;52.798;27.544;2023-01-30T16:21:08;1004.8;;;1.1;89.6
61880;BME280;47817;52.798;27.544;2023-01-30T16:26:31;1004.8;;;1;89.2
61880;BME280;47817;52.798;27.544;2023-01-30T16:31:17;1004.8;;;1;89.1
61880;BME280;47817;52.798;27.544;2023-01-30T16:36:37;1004.9;;;1;89.1
61880;BME280;47817;52.798;27.544;2023-01-30T16:41:24;1004.9;;;1.1;89.1
61880;BME280;47817;52.798;27.544;2023-01-30T16:46:56;1004.8;;;1.1;89
61880;BME280;47817;52.798;27.544;2023-01-30T16:51:22;1004.8;;;1.1;88.8
61880;BME280;47817;52.798;27.544;2023-01-30T16:56:29;1004.9;;;1.1;88.7
61880;BME280;47817;52.798;27.544;2023-01-30T17:01:55;1004.8;;;1.2;88.7
61880;BME280;47817;52.798;27.544;2023-01-30T17:06:33;1004.7;;;1.2;88.4
61880;BME280;47817;52.798;27.544;2023-01-30T17:11:27;1004.7;;;1.1;88.3
61880;BME280;47817;52.798;27.544;2023-01-30T17:16:38;1004.7;;;1.1;88.2
61880;BME280;47817;52.798;27.544;2023-01-30T17:21:30;1004.7;;;1.1;88
61880;BME280;47817;52.798;27.544;2023-01-30T17:26:17;1004.8;;;1.1;87.9
61880;BME280;47817;52.798;27.544;2023-01-30T17:31:53;1004.8;;;1.1;87.7
61880;BME280;47817;52.798;27.544;2023-01-30T17:36:31;1004.7;;;1.1;87.8
61880;BME280;47817;52.798;27.544;2023-01-30T17:41:55;1004.7;;;1.1;87.8
61880;BME280;47817;52.798;27.544;2023-01-30T17:46:19;1004.6;;;1.2;87.6
61880;BME280;47817;52.798;27.544;2023-01-30T17:51:53;1004.7;;;1.2;87.6
61880;BME280;47817;52.798;27.544;2023-01-30T17:56:20;1004.6;;;1.2;87.4
61880;BME280;47817;52.798;27.544;2023-01-30T18:01:21;1004.6;;;1.2;87.3
61880;BME280;47817;52.798;27.544;2023-01-30T18:06:19;1004.5;;;1.3;87.2
61880;BME280;47817;52.798;27.544;2023-01-30T18:11:53;1004.6;;;1.2;87
61880;BME280;47817;52.798;27.544;2023-01-30T18:16:08;1004.6;;;1.2;87.1
61880;BME280;47817;52.798;27.544;2023-01-30T18:21:41;1004.6;;;1.2;87
61880;BME280;47817;52.798;27.544;2023-01-30T18:26:43;1004.7;;;1.2;87.2
61880;BME280;47817;52.798;27.544;2023-01-30T18:31:41;1004.8;;;1.3;87.2
61880;BME280;47817;52.798;27.544;2023-01-30T18:36:39;1004.8;;;1.3;87.2
61880;BME280;47817;52.798;27.544;2023-01-30T18:41:07;1004.7;;;1.3;87.4
61880;BME280;47817;52.798;27.544;2023-01-30T18:46:41;1004.7;;;1.2;87.6
61880;BME280;47817;52.798;27.544;2023-01-30T18:51:19;1004.8;;;1.2;87.7
61880;BME280;47817;52.798;27.544;2023-01-30T18:56:41;1004.8;;;1.2;88
61880;BME280;47817;52.798;27.544;2023-01-30T19:01:19;1004.9;;;1.2;88
61880;BME280;47817;52.798;27.544;2023-01-30T19:06:51;1004.8;;;1.3;88
61880;BME280;47817;52.798;27.544;2023-01-30T19:11:08;1004.8;;;1.3;88.1
61880;BME280;47817;52.798;27.544;2023-01-30T19:16:55;1004.8;;;1.3;88.3
61880;BME280;47817;52.798;27.544;2023-01-30T19:21:55;1004.8;;;1.3;88.4
61880;BME280;47817;52.798;27.544;2023-01-30T19:26:53;1004.7;;;1.4;88.4
61880;BME280;47817;52.798;27.544;2023-01-30T19:31:31;1004.8;;;1.4;88.5
61880;BME280;47817;52.798;27.544;2023-01-30T19:36:34;1004.7;;;1.5;88.5
61880;BME280;47817;52.798;27.544;2023-01-30T19:41:09;1004.7;;;1.4;88.6
61880;BME280;47817;52.798;27.544;2023-01-30T19:46:07;1004.8;;;1.5;88.8
61880;BME280;47817;52.798;27.544;2023-01-30T19:51:41;1004.8;;;1.5;88.7
61880;BME280;47817;52.798;27.544;2023-01-30T19:56:07;1005;;;1.5;88.7
61880;BME280;47817;52.798;27.544;2023-01-30T20:01:39;1004.9;;;1.5;88.8
61880;BME280;47817;52.798;27.544;2023-01-30T20:06:31;1004.9;;;1.5;88.9
61880;BME280;47817;52.798;27.544;2023-01-30T20:11:53;1004.9;;;1.6;89.5
61880;BME280;47817;52.798;27.544;2023-01-30T20:16:43;1005;;;1.7;89.2
61880;BME280;47817;52.798;27.544;2023-01-30T20:21:55;1005;;;1.7;89.1
61880;BME280;47817;52.798;27.544;2023-01-30T20:26:55;1005.1;;;1.7;89.2
61880;BME280;47817;52.798;27.544;2023-01-30T20:31:29;1005.1;;;1.8;89.1
61880;BME280;47817;52.798;27.544;2023-01-30T20:36:43;1005.1;;;1.8;89
61880;BME280;47817;52.798;27.544;2023-01-30T20:41:07;1005.2;;;1.7;89.2
61880;BME280;47817;52.798;27.544;2023-01-30T20:46:42;1005.2;;;1.7;89.3
61880;BME280;47817;52.798;27.544;2023-01-30T20:51:20;1005.2;;;1.8;89.4
61880;BME280;47817;52.798;27.544;2023-01-30T20:56:55;1005.2;;;1.8;89.4
61880;BME280;47817;52.798;27.544;2023-01-30T21:01:07;1005.3;;;1.8;89.4
61880;BME280;47817;52.798;27.544;2023-01-30T21:06:41;1005.4;;;1.8;89.4
61880;BME280;47817;52.798;27.544;2023-01-30T21:11:39;1005.4;;;1.9;89.3
61880;BME280;47817;52.798;27.544;2023-01-30T21:16:51;1005.4;;;1.9;89.2
61880;BME280;47817;52.798;27.544;2023-01-30T21:21:27;1005.4;;;2;89.1
61880;BME280;47817;52.798;27.544;2023-01-30T21:26:07;1005.5;;;2;89.1
61880;BME280;47817;52.798;27.544;2023-01-30T21:31:55;1005.5;;;2;89
61880;BME280;47817;52.798;27.544;2023-01-30T21:36:21;1005.6;;;2.1;88.9
61880;BME280;47817;52.798;27.544;2023-01-30T21:41:43;1005.7;;;2.1;88.7
61880;BME280;47817;52.798;27.544;2023-01-30T21:46:55;1005.7;;;2.1;88.8
61880;BME280;47817;52.798;27.544;2023-01-30T21:51:53;1005.7;;;2;88.9
61880;BME280;47817;52.798;27.544;2023-01-30T21:56:29;1005.7;;;2;88.9
61880;BME280;47817;52.798;27.544;2023-01-30T22:01:33;1005.6;;;2.1;88.9
61880;BME280;47817;52.798;27.544;2023-01-30T22:06:31;1005.7;;;2;88.9
61880;BME280;47817;52.798;27.544;2023-01-30T22:11:29;1005.7;;;2.1;89
61880;BME280;47817;52.798;27.544;2023-01-30T22:16:27;1005.7;;;2;89
61880;BME280;47817;52.798;27.544;2023-01-30T22:21:18;1005.8;;;2;89.2
61880;BME280;47817;52.798;27.544;2023-01-30T22:26:07;1005.8;;;2;89.2
61880;BME280;47817;52.798;27.544;2023-01-30T22:31:08;1005.8;;;2.1;89.1
61880;BME280;47817;52.798;27.544;2023-01-30T22:36:07;1005.8;;;2.1;89.1
61880;BME280;47817;52.798;27.544;2023-01-30T22:41:55;1005.8;;;2.1;89.2
61880;BME280;47817;52.798;27.544;2023-01-30T22:46:31;1005.8;;;2.1;89.3
61880;BME280;47817;52.798;27.544;2023-01-30T22:51:29;1005.8;;;2.1;89.4
61880;BME280;47817;52.798;27.544;2023-01-30T22:56:53;1005.8;;;2.2;89.2
61880;BME280;47817;52.798;27.544;2023-01-30T23:01:08;1005.8;;;2.2;89.2
61880;BME280;47817;52.798;27.544;2023-01-30T23:06:08;1005.8;;;2.2;89.2
61880;BME280;47817;52.798;27.544;2023-01-30T23:11:28;1005.8;;;2.2;89.2
61880;BME280;47817;52.798;27.544;2023-01-30T23:16:07;1005.8;;;2.2;89.3
61880;BME280;47817;52.798;27.544;2023-01-30T23:21:30;1005.8;;;2.2;89.3
61880;BME280;47817;52.798;27.544;2023-01-30T23:26:17;1005.8;;;2.2;89.4
61880;BME280;47817;52.798;27.544;2023-01-30T23:31:31;1005.8;;;2.2;89.5
61880;BME280;47817;52.798;27.544;2023-01-30T23:36:53;1005.7;;;2.2;89.4
61880;BME280;47817;52.798;27.544;2023-01-30T23:41:30;1005.7;;;2.3;89.4
61880;BME280;47817;52.798;27.544;2023-01-30T23:46:41;1005.7;;;2.3;89.2
61880;BME280;47817;52.798;27.544;2023-01-30T23:51:53;1005.7;;;2.3;89.4
61880;BME280;47817;52.798;27.544;2023-01-30T23:56:29;1005.7;;;2.3;89.4
